Time;durP1;ratioP1;P1;durP2;ratioP2;P2;SDS_P1;SDS_P2;PMS_P1;PMS_P2;Temp;Humidity;BMP_temperature;BMP_pressure;BME280_temperature;BME280_humidity;BME280_pressure;Samples;Min_cycle;Max_cycle;Signal;HPM_P1;HPM_P2
2023/01/28 00:00:09;;;;;;;14.23;3.22;;;;;;;12.82;68.08;101718.16;5032943;28;20022;-48
2023/01/28 00:02:35;;;;;;;8.23;3.30;;;;;;;12.69;68.25;101711.69;5034071;28;20025;-47
2023/01/28 00:05:03;;;;;;;8.35;2.90;;;;;;;12.77;67.79;101713.41;5033916;28;20025;-48
2023/01/28 00:07:29;;;;;;;11.43;2.78;;;;;;;12.66;68.25;101709.41;5033622;28;20043;-47
2023/01/28 00:09:55;;;;;;;10.30;3.08;;;;;;;12.67;68.39;101705.69;5012732;28;20361;-48
2023/01/28 00:12:22;;;;;;;12.30;3.25;;;;;;;12.79;67.74;101697.06;5021048;28;20400;-49
2023/01/28 00:14:49;;;;;;;6.63;2.97;;;;;;;12.47;68.54;101693.16;5034033;28;20380;-50
2023/01/28 00:17:15;;;;;;;17.05;3.13;;;;;;;12.47;68.52;101685.13;5033414;28;20053;-47
2023/01/28 00:19:41;;;;;;;11.63;3.88;;;;;;;12.28;69.58;101687.50;5033731;28;20048;-48
2023/01/28 00:22:07;;;;;;;12.88;3.85;;;;;;;12.29;70.48;101675.72;5033760;28;20471;-48
2023/01/28 00:24:34;;;;;;;13.38;3.80;;;;;;;12.15;71.39;101666.75;5033835;28;20018;-48
2023/01/28 00:27:00;;;;;;;8.57;3.60;;;;;;;12.16;71.53;101662.22;5015612;28;20437;-48
2023/01/28 00:29:26;;;;;;;13.15;4.32;;;;;;;12.16;71.83;101651.50;5033400;28;20476;-47
2023/01/28 00:31:52;;;;;;;11.38;3.78;;;;;;;12.16;72.10;101656.84;5033367;28;20036;-51
2023/01/28 00:34:19;;;;;;;9.00;3.60;;;;;;;11.92;73.72;101654.59;5033370;28;20384;-51
2023/01/28 00:36:56;;;;;;;11.60;3.55;;;;;;;11.85;74.29;101659.94;5033190;28;20033;-50
2023/01/28 00:39:24;;;;;;;15.88;4.13;;;;;;;11.83;74.29;101654.75;5033285;28;20045;-49
2023/01/28 00:41:51;;;;;;;10.60;3.38;;;;;;;11.64;75.24;101658.06;5032952;28;20025;-47
2023/01/28 00:44:18;;;;;;;9.95;3.38;;;;;;;11.66;75.26;101657.84;5033122;28;20026;-50
2023/01/28 00:46:45;;;;;;;9.20;3.50;;;;;;;11.59;75.11;101669.34;5033160;28;20030;-50
2023/01/28 00:49:11;;;;;;;10.32;2.97;;;;;;;11.66;74.94;101650.66;5033109;28;20106;-51
2023/01/28 00:51:38;;;;;;;15.35;3.22;;;;;;;11.52;75.57;101648.88;5032980;28;20029;-51
2023/01/28 00:54:04;;;;;;;13.10;3.30;;;;;;;11.55;75.74;101653.88;5021788;28;20053;-53
2023/01/28 00:56:30;;;;;;;7.88;3.45;;;;;;;11.54;75.65;101647.66;5033143;28;20482;-50
2023/01/28 00:58:57;;;;;;;10.50;2.83;;;;;;;11.53;75.39;101645.16;5032966;28;20087;-50
2023/01/28 01:01:25;;;;;;;8.25;2.45;;;;;;;11.51;75.07;101637.34;5032947;28;20029;-50
2023/01/28 01:04:02;;;;;;;8.95;3.03;;;;;;;11.49;75.32;101627.81;5032633;28;20037;-51
2023/01/28 01:06:31;;;;;;;11.73;2.95;;;;;;;11.35;76.02;101621.50;5032432;28;20113;-51
2023/01/28 01:08:57;;;;;;;8.57;3.13;;;;;;;11.41;76.26;101611.88;5029872;28;20032;-46
2023/01/28 01:11:23;;;;;;;8.85;3.47;;;;;;;11.18;76.85;101615.56;5031274;28;20025;-47
2023/01/28 01:13:58;;;;;;;11.15;3.08;;;;;;;11.16;77.32;101631.03;5031917;28;20029;-46
2023/01/28 01:16:27;;;;;;;9.93;3.40;;;;;;;11.15;76.97;101637.38;5030751;28;20029;-49
2023/01/28 01:18:54;;;;;;;11.57;3.72;;;;;;;11.02;77.32;101613.97;5032958;28;20112;-50
2023/01/28 01:21:23;;;;;;;8.52;3.05;;;;;;;10.80;77.63;101626.50;5031895;28;20510;-46
2023/01/28 01:23:54;;;;;;;13.57;4.00;;;;;;;11.13;76.88;101607.28;5032615;28;20026;-50
2023/01/28 01:26:21;;;;;;;13.10;3.33;;;;;;;10.96;77.87;101612.03;5032302;28;20032;-46
2023/01/28 01:28:47;;;;;;;10.95;3.83;;;;;;;10.72;79.11;101605.19;5022592;28;20084;-46
2023/01/28 01:31:19;;;;;;;8.25;3.20;;;;;;;10.68;79.02;101609.25;5032161;28;20021;-49
2023/01/28 01:33:47;;;;;;;10.77;3.13;;;;;;;10.69;78.85;101596.69;5032760;28;20021;-47
2023/01/28 01:36:15;;;;;;;12.90;3.50;;;;;;;10.54;79.52;101608.25;5032414;28;20185;-48
2023/01/28 01:38:42;;;;;;;8.13;2.67;;;;;;;10.47;80.11;101598.50;5032040;28;20037;-47
2023/01/28 01:41:19;;;;;;;12.70;3.80;;;;;;;10.37;80.33;101609.47;5032332;28;20029;-50
2023/01/28 01:44:00;;;;;;;13.05;3.47;;;;;;;10.35;80.36;101597.31;5032694;28;20065;-49
2023/01/28 01:46:29;;;;;;;8.63;3.40;;;;;;;10.27;80.47;101603.56;5032175;28;20029;-50
2023/01/28 01:49:01;;;;;;;10.43;3.33;;;;;;;10.12;81.24;101597.38;5026061;28;20475;-49
2023/01/28 01:51:32;;;;;;;7.68;3.30;;;;;;;10.14;80.91;101596.16;5032157;28;20029;-48
2023/01/28 01:53:59;;;;;;;11.75;3.97;;;;;;;10.05;81.62;101605.31;5026371;28;20508;-49
2023/01/28 01:56:31;;;;;;;15.63;4.35;;;;;;;10.06;81.27;101585.56;5027399;28;20111;-51
2023/01/28 01:58:59;;;;;;;11.00;3.65;;;;;;;10.09;80.91;101576.34;5026944;28;20053;-51
2023/01/28 02:01:30;;;;;;;10.30;3.35;;;;;;;10.00;81.24;101578.28;5027760;28;20056;-46
2023/01/28 02:04:02;;;;;;;16.13;3.83;;;;;;;9.92;81.86;101573.00;5032090;28;20044;-47
2023/01/28 02:06:30;;;;;;;11.13;3.47;;;;;;;10.01;81.40;101566.56;5031105;28;20025;-46
2023/01/28 02:08:57;;;;;;;8.80;3.45;;;;;;;9.91;81.61;101580.22;5032048;28;20112;-47
2023/01/28 02:11:28;;;;;;;8.20;3.45;;;;;;;9.93;81.87;101578.16;5032054;28;20033;-47
2023/01/28 02:13:57;;;;;;;8.57;3.15;;;;;;;9.91;81.85;101577.53;5032173;28;20033;-49
2023/01/28 02:16:24;;;;;;;10.77;3.70;;;;;;;10.01;81.17;101579.94;5031693;28;20022;-48
2023/01/28 02:18:51;;;;;;;16.27;4.47;;;;;;;9.89;82.24;101581.41;5031966;28;20498;-45
2023/01/28 02:21:28;;;;;;;12.18;4.25;;;;;;;9.91;82.30;101568.69;5031652;28;20037;-46
2023/01/28 02:24:06;;;;;;;13.88;3.95;;;;;;;9.86;82.52;101565.72;5031851;28;20036;-46
2023/01/28 02:26:55;;;;;;;11.20;3.55;;;;;;;9.99;82.30;101564.09;5031519;28;20029;-46
2023/01/28 02:29:41;;;;;;;9.68;3.75;;;;;;;9.72;83.39;101573.56;5032028;28;20539;-48
2023/01/28 02:32:19;;;;;;;;;;;;;;;9.43;85.08;101570.81;5032137;28;20048;-46
2023/01/28 02:34:50;;;;;;;14.63;4.07;;;;;;;9.55;84.78;101569.38;5022758;28;19917;-45
2023/01/28 02:37:46;;;;;;;12.10;3.67;;;;;;;9.63;84.25;101563.94;5017669;28;20080;-46
2023/01/28 02:40:28;;;;;;;14.13;4.82;;;;;;;9.56;84.48;101559.53;5029848;28;20049;-45
2023/01/28 02:42:56;;;;;;;14.75;4.32;;;;;;;9.57;84.36;101555.84;5031332;28;20067;-46
2023/01/28 02:47:56;;;;;;;17.52;4.72;;;;;;;9.56;85.04;101565.69;5030303;28;20030;-46
2023/01/28 02:48:12;;;;;;;14.63;4.10;;;;;;;9.59;85.06;101565.31;5023520;28;20049;-49
2023/01/28 02:51:14;;;;;;;19.58;4.53;;;;;;;9.73;84.46;101561.84;5031453;28;20021;-50
2023/01/28 02:53:49;;;;;;;10.45;3.90;;;;;;;9.83;84.15;101564.25;5011409;28;20041;-48
2023/01/28 02:56:42;;;;;;;13.88;3.83;;;;;;;9.77;83.41;101567.66;5011641;28;20160;-50
2023/01/28 02:59:35;;;;;;;13.55;4.82;;;;;;;9.70;84.24;101562.19;5029565;28;20029;-46
2023/01/28 03:02:10;;;;;;;18.02;4.97;;;;;;;9.64;84.30;101562.94;5031057;28;20095;-47
2023/01/28 03:04:42;;;;;;;21.40;5.97;;;;;;;9.59;84.79;101581.34;5031290;28;20026;-47
2023/01/28 03:07:11;;;;;;;13.10;5.25;;;;;;;9.48;85.50;101569.25;5030721;28;20064;-49
2023/01/28 03:09:41;;;;;;;13.52;4.43;;;;;;;9.70;85.20;101562.19;5031403;28;20566;-48
2023/01/28 03:36:49;;;;;;;18.73;5.65;;;;;;;9.59;85.81;101577.84;5034780;28;20055;-46
2023/01/28 03:39:18;;;;;;;21.90;5.93;;;;;;;9.38;86.73;101574.03;5034538;28;20111;-49
2023/01/28 03:42:07;;;;;;;13.68;5.35;;;;;;;9.49;86.34;101580.78;5034452;28;20091;-46
2023/01/28 03:44:51;;;;;;;21.20;5.80;;;;;;;9.68;85.42;101582.94;5034487;28;20484;-47
2023/01/28 03:47:29;;;;;;;18.10;6.05;;;;;;;9.71;84.46;101590.59;5034255;28;20518;-46
2023/01/28 03:49:58;;;;;;;16.90;5.18;;;;;;;9.79;83.63;101590.53;5034267;28;20124;-49
2023/01/28 03:52:29;;;;;;;14.77;5.65;;;;;;;9.94;81.73;101597.75;5034502;28;20032;-49
2023/01/28 03:54:55;;;;;;;14.45;5.00;;;;;;;9.95;81.91;101592.22;5034087;28;20025;-49
2023/01/28 03:57:24;;;;;;;16.48;5.55;;;;;;;9.86;82.26;101587.13;5033896;28;20053;-47
2023/01/28 03:59:51;;;;;;;14.20;5.57;;;;;;;9.86;81.90;101582.59;5033999;28;20029;-46
2023/01/28 04:02:20;;;;;;;17.80;5.57;;;;;;;9.86;81.30;101587.13;5034033;28;20484;-49
2023/01/28 04:04:46;;;;;;;16.05;5.43;;;;;;;9.79;81.57;101587.84;5033886;28;20036;-48
2023/01/28 04:07:14;;;;;;;19.40;7.30;;;;;;;9.97;80.35;101578.63;5033440;28;20022;-46
2023/01/28 04:09:41;;;;;;;14.52;4.95;;;;;;;9.84;80.56;101583.81;5034091;28;20021;-46
2023/01/28 04:12:09;;;;;;;23.98;6.68;;;;;;;9.63;81.14;101580.00;5034140;28;20021;-48
2023/01/28 04:14:36;;;;;;;16.85;5.38;;;;;;;9.65;81.12;101580.63;5034185;28;20076;-46
2023/01/28 04:17:02;;;;;;;17.20;6.28;;;;;;;9.93;79.65;101590.72;5032749;28;20025;-48
2023/01/28 04:19:30;;;;;;;15.75;5.55;;;;;;;9.45;81.86;101590.19;5033709;28;20396;-46
2023/01/28 04:21:56;;;;;;;19.60;5.97;;;;;;;9.72;80.78;101586.94;5033593;28;20029;-46
2023/01/28 04:24:23;;;;;;;13.13;5.25;;;;;;;9.68;80.24;101580.28;5033094;28;20041;-46
2023/01/28 04:26:49;;;;;;;17.70;5.47;;;;;;;9.85;79.98;101572.09;5033426;28;20087;-46
2023/01/28 04:29:15;;;;;;;13.00;4.72;;;;;;;9.66;80.42;101570.75;5026572;28;20026;-46
2023/01/28 04:31:41;;;;;;;17.17;5.45;;;;;;;9.55;80.60;101585.44;5013795;28;20032;-45
2023/01/28 04:34:08;;;;;;;17.02;4.75;;;;;;;9.53;80.53;101587.44;5013831;28;20030;-46
2023/01/28 04:36:35;;;;;;;11.40;4.75;;;;;;;9.51;80.26;101589.47;5013473;28;20049;-46
2023/01/28 04:39:01;;;;;;;16.23;5.22;;;;;;;9.52;80.06;101580.44;5013958;28;20080;-46
2023/01/28 04:41:27;;;;;;;10.10;4.70;;;;;;;9.17;80.86;101585.41;5030035;28;20549;-46
2023/01/28 04:43:53;;;;;;;16.60;5.30;;;;;;;9.16;80.53;101589.09;5033485;28;20105;-49
2023/01/28 04:46:20;;;;;;;13.70;4.55;;;;;;;9.23;80.00;101592.69;5032452;28;20140;-49
2023/01/28 04:48:46;;;;;;;10.90;4.15;;;;;;;9.28;79.78;101578.81;5032858;28;20395;-46
2023/01/28 04:51:12;;;;;;;15.73;5.00;;;;;;;9.29;79.28;101593.00;5033162;28;20018;-49
2023/01/28 04:53:38;;;;;;;14.48;4.60;;;;;;;9.22;79.19;101585.69;5033100;28;20033;-47
2023/01/28 04:56:05;;;;;;;13.93;5.07;;;;;;;8.97;80.38;101584.19;5032554;28;20026;-46
2023/01/28 04:58:31;;;;;;;15.68;4.40;;;;;;;8.60;81.85;101599.06;5032870;28;20493;-45
2023/01/28 05:00:58;;;;;;;13.73;4.45;;;;;;;8.74;81.24;101586.84;5032820;28;20443;-47
2023/01/28 05:03:25;;;;;;;15.07;4.53;;;;;;;8.67;81.59;101580.56;5032998;28;20160;-46
2023/01/28 05:05:52;;;;;;;15.73;4.88;;;;;;;8.83;80.57;101588.47;5032773;28;20041;-46
2023/01/28 05:08:18;;;;;;;15.77;5.20;;;;;;;8.72;80.40;101592.38;5033015;28;20034;-47
2023/01/28 05:10:44;;;;;;;12.60;4.57;;;;;;;8.76;80.41;101578.66;5032782;28;20475;-45
2023/01/28 05:13:11;;;;;;;12.32;4.35;;;;;;;8.78;79.98;101574.00;5032922;28;20609;-47
2023/01/28 05:15:37;;;;;;;11.65;4.32;;;;;;;8.60;80.22;101580.41;5032224;28;20037;-49
2023/01/28 05:18:03;;;;;;;13.80;4.65;;;;;;;8.57;80.15;101575.44;5032127;28;20040;-50
2023/01/28 05:20:30;;;;;;;12.57;3.92;;;;;;;8.63;79.79;101580.06;5030029;28;20212;-47
2023/01/28 05:22:56;;;;;;;17.33;4.80;;;;;;;8.42;80.13;101574.50;5028754;28;20037;-46
2023/01/28 05:25:23;;;;;;;16.98;5.28;;;;;;;8.28;80.58;101585.88;5018268;28;20029;-46
2023/01/28 05:27:51;;;;;;;8.13;4.32;;;;;;;8.39;80.68;101599.69;5028136;28;20046;-46
2023/01/28 05:30:20;;;;;;;10.88;3.72;;;;;;;8.51;79.98;101591.31;5031730;28;20035;-46
2023/01/28 05:32:47;;;;;;;13.13;3.92;;;;;;;8.46;80.17;101599.84;5014076;28;20148;-46
2023/01/28 05:35:13;;;;;;;10.60;4.18;;;;;;;8.49;79.84;101591.47;5017994;28;20025;-47
2023/01/28 05:37:39;;;;;;;10.25;3.75;;;;;;;8.52;79.82;101598.31;5032565;28;20034;-46
2023/01/28 05:40:06;;;;;;;12.43;3.67;;;;;;;8.55;79.76;101582.78;5032559;28;20496;-46
2023/01/28 05:42:32;;;;;;;12.75;4.32;;;;;;;8.50;79.52;101590.47;5032423;28;20029;-47
2023/01/28 05:44:59;;;;;;;8.70;3.78;;;;;;;8.46;79.34;101594.50;5032328;28;20026;-46
2023/01/28 05:47:26;;;;;;;10.18;4.03;;;;;;;8.52;78.44;101601.81;5030589;28;20096;-46
2023/01/28 05:49:52;;;;;;;13.50;4.03;;;;;;;8.38;79.29;101594.50;5032556;28;20043;-47
2023/01/28 05:52:18;;;;;;;9.02;3.70;;;;;;;8.34;79.29;101596.69;5032527;28;20105;-46
2023/01/28 05:54:44;;;;;;;11.07;3.85;;;;;;;8.34;79.15;101595.84;5032174;28;20121;-46
2023/01/28 05:57:10;;;;;;;11.82;3.80;;;;;;;8.24;79.57;101590.72;5031239;28;20033;-47
2023/01/28 05:59:37;;;;;;;13.73;4.20;;;;;;;8.18;79.82;101596.75;5019606;28;20038;-48
2023/01/28 06:02:03;;;;;;;7.45;3.08;;;;;;;8.21;79.63;101596.38;5011889;28;20022;-47
2023/01/28 06:04:29;;;;;;;14.80;4.47;;;;;;;7.76;81.60;101592.50;5016677;28;20056;-46
2023/01/28 06:06:55;;;;;;;12.57;4.25;;;;;;;7.99;80.57;101595.28;5032017;28;20116;-47
2023/01/28 06:09:22;;;;;;;8.45;3.50;;;;;;;8.10;79.96;101594.91;5031664;28;20539;-47
2023/01/28 06:11:49;;;;;;;9.35;4.03;;;;;;;8.13;79.21;101596.41;5031010;28;20083;-47
2023/01/28 06:14:15;;;;;;;8.25;3.50;;;;;;;8.13;78.95;101593.75;5031942;28;20025;-46
2023/01/28 06:16:41;;;;;;;13.98;3.65;;;;;;;8.14;78.76;101598.91;5026049;28;20022;-47
2023/01/28 06:19:07;;;;;;;10.20;3.40;;;;;;;8.09;78.61;101597.75;5012017;28;20026;-48
2023/01/28 06:21:34;;;;;;;8.82;3.67;;;;;;;8.06;78.61;101595.44;5016992;28;20060;-48
2023/01/28 06:24:00;;;;;;;16.88;4.40;;;;;;;8.06;78.77;101598.94;5031557;28;20056;-45
2023/01/28 06:26:26;;;;;;;9.82;3.90;;;;;;;8.15;78.02;101597.06;5031137;28;20159;-46
2023/01/28 06:28:52;;;;;;;11.48;4.22;;;;;;;8.05;77.78;101602.63;5026195;28;20116;-47
2023/01/28 06:31:18;;;;;;;11.77;5.10;;;;;;;8.03;77.61;101601.09;5024151;28;20053;-46
2023/01/28 06:33:45;;;;;;;10.88;5.70;;;;;;;7.91;77.46;101600.63;5029752;28;20110;-50
2023/01/28 06:36:11;;;;;;;20.60;8.50;;;;;;;7.99;77.80;101597.94;5030176;28;20025;-49
2023/01/28 06:38:37;;;;;;;20.20;8.02;;;;;;;7.92;77.67;101594.31;5029404;28;20033;-49
2023/01/28 06:41:04;;;;;;;17.88;7.32;;;;;;;7.83;77.70;101596.16;5031248;28;20033;-50
2023/01/28 06:43:30;;;;;;;13.63;6.47;;;;;;;7.81;77.72;101589.31;5030330;28;20037;-49
2023/01/28 06:45:57;;;;;;;13.93;7.82;;;;;;;7.75;77.69;101592.66;5030904;28;20061;-49
2023/01/28 06:48:24;;;;;;;15.82;7.45;;;;;;;7.76;77.89;101605.00;5028938;28;20195;-49
2023/01/28 06:50:51;;;;;;;11.95;6.28;;;;;;;7.69;77.64;101596.84;5031085;28;20108;-49
2023/01/28 06:53:18;;;;;;;13.60;7.35;;;;;;;7.66;77.47;101594.50;5031075;28;20108;-47
2023/01/28 06:55:44;;;;;;;15.95;7.32;;;;;;;7.65;77.15;101607.00;5030960;28;20025;-48
2023/01/28 06:58:11;;;;;;;14.15;6.88;;;;;;;7.65;76.95;101607.00;5031133;28;20025;-49
2023/01/28 07:00:37;;;;;;;13.05;6.55;;;;;;;7.54;76.99;101609.16;5031279;28;20368;-46
2023/01/28 07:03:04;;;;;;;14.73;6.40;;;;;;;7.48;76.98;101610.66;5031300;28;20029;-46
2023/01/28 07:05:30;;;;;;;11.25;6.15;;;;;;;7.56;76.91;101602.69;5030664;28;20530;-45
2023/01/28 07:07:56;;;;;;;14.00;6.53;;;;;;;7.52;76.40;101606.69;5031718;28;20065;-46
2023/01/28 07:10:23;;;;;;;13.93;6.15;;;;;;;7.48;76.23;101609.84;5035211;28;20029;-46
2023/01/28 07:12:49;;;;;;;10.95;5.53;;;;;;;7.41;76.78;101607.00;5034184;28;20029;-46
2023/01/28 07:15:17;;;;;;;14.73;6.10;;;;;;;7.33;76.64;101617.69;5034935;28;20467;-46
2023/01/28 07:17:44;;;;;;;10.80;5.43;;;;;;;7.33;76.93;101604.38;5034661;28;20156;-46
2023/01/28 07:20:13;;;;;;;10.05;5.70;;;;;;;7.27;76.89;101607.66;5034679;28;20368;-48
2023/01/28 07:22:41;;;;;;;10.77;5.82;;;;;;;7.26;76.80;101606.84;5035158;28;20364;-46
2023/01/28 07:25:09;;;;;;;12.85;5.95;;;;;;;7.34;76.88;101596.19;5034926;28;20053;-46
2023/01/28 07:27:35;;;;;;;17.30;6.32;;;;;;;7.22;77.14;101605.53;5034751;28;20053;-46
2023/01/28 07:30:02;;;;;;;16.23;5.80;;;;;;;7.07;78.88;101612.47;5035099;28;20021;-46
2023/01/28 07:32:28;;;;;;;8.88;5.10;;;;;;;7.16;78.61;101606.16;5034511;28;20118;-46
2023/01/28 07:34:55;;;;;;;9.65;5.60;;;;;;;7.19;78.41;101611.16;5034741;28;20084;-46
2023/01/28 07:37:21;;;;;;;12.85;5.43;;;;;;;7.31;78.53;101606.34;5033859;28;20037;-46
2023/01/28 07:39:47;;;;;;;12.25;5.28;;;;;;;7.57;78.25;101601.69;5034385;28;20112;-47
2023/01/28 07:42:13;;;;;;;11.95;5.68;;;;;;;7.58;77.86;101614.00;5034142;28;20117;-46
2023/01/28 07:44:40;;;;;;;8.98;5.18;;;;;;;7.39;78.02;101609.03;5034702;28;20057;-47
2023/01/28 07:47:06;;;;;;;13.30;5.97;;;;;;;7.19;78.86;101613.00;5034205;28;20029;-45
2023/01/28 07:49:33;;;;;;;11.98;4.78;;;;;;;7.33;78.85;101601.69;5033563;28;20041;-46
2023/01/28 07:51:59;;;;;;;15.70;6.22;;;;;;;6.85;81.05;101597.97;5034084;28;20022;-46
2023/01/28 07:54:26;;;;;;;15.32;5.75;;;;;;;6.64;81.78;101611.69;5033980;28;20029;-46
2023/01/28 07:56:52;;;;;;;12.10;5.05;;;;;;;6.82;81.07;101608.91;5034036;28;20052;-46
2023/01/28 07:59:18;;;;;;;10.52;4.55;;;;;;;6.96;80.09;101608.31;5034363;28;20050;-46
2023/01/28 08:01:44;;;;;;;11.45;4.72;;;;;;;6.86;80.23;101608.44;5034138;28;20029;-46
2023/01/28 08:04:11;;;;;;;14.93;5.15;;;;;;;7.07;78.97;101599.16;5033709;28;20036;-46
2023/01/28 08:06:37;;;;;;;11.65;4.72;;;;;;;6.84;79.62;101601.63;5033766;28;20044;-46
2023/01/28 08:09:05;;;;;;;13.10;4.80;;;;;;;6.76;79.69;101599.75;5034106;28;20472;-46
2023/01/28 08:11:32;;;;;;;12.38;4.97;;;;;;;6.76;79.59;101606.91;5033888;28;20084;-46
2023/01/28 08:13:59;;;;;;;9.82;4.45;;;;;;;6.70;79.71;101600.41;5033742;28;20025;-46
2023/01/28 08:16:26;;;;;;;13.07;4.88;;;;;;;6.68;80.07;101598.91;5031629;28;20034;-47
2023/01/28 08:18:52;;;;;;;13.52;5.45;;;;;;;6.74;79.44;101595.63;5033851;28;20029;-46
2023/01/28 08:21:18;;;;;;;14.40;5.13;;;;;;;6.68;79.41;101582.97;5032928;28;20079;-47
2023/01/28 08:23:45;;;;;;;9.52;4.40;;;;;;;6.65;79.38;101580.63;5033734;28;20025;-46
2023/01/28 08:26:11;;;;;;;12.13;4.30;;;;;;;6.59;79.18;101582.09;5033121;28;20034;-47
2023/01/28 08:28:37;;;;;;;8.38;4.07;;;;;;;6.70;78.46;101572.97;5033523;28;20076;-46
2023/01/28 08:31:04;;;;;;;7.45;3.85;;;;;;;6.58;78.41;101581.25;5033704;28;20033;-49
2023/01/28 08:33:30;;;;;;;11.40;4.68;;;;;;;6.56;78.43;101572.63;5033133;28;20224;-46
2023/01/28 08:35:57;;;;;;;9.05;3.67;;;;;;;6.53;78.78;101577.41;5033252;28;20541;-46
2023/01/28 08:38:24;;;;;;;12.38;4.32;;;;;;;6.48;78.56;101569.91;5033186;28;20087;-47
2023/01/28 08:40:52;;;;;;;9.45;4.32;;;;;;;6.42;78.44;101575.88;5031652;28;20120;-46
2023/01/28 08:43:19;;;;;;;13.20;4.43;;;;;;;6.42;78.15;101565.25;5033343;28;20030;-48
2023/01/28 08:45:45;;;;;;;7.82;3.92;;;;;;;6.37;78.32;101562.25;5032984;28;20395;-46
2023/01/28 08:48:14;;;;;;;12.82;4.97;;;;;;;6.55;78.83;101560.31;5033255;28;20135;-48
2023/01/28 08:50:41;;;;;;;13.07;5.63;;;;;;;6.38;79.29;101553.25;5033207;28;20446;-46
2023/01/28 08:53:14;;;;;;;7.82;5.10;;;;;;;6.27;79.75;101551.75;5033140;28;20026;-47
2023/01/28 08:55:40;;;;;;;10.50;5.13;;;;;;;6.51;79.17;101545.69;5033442;28;20040;-47
2023/01/28 08:58:10;;;;;;;15.27;5.07;;;;;;;6.79;78.30;101550.72;5032797;28;20026;-48
2023/01/28 09:00:37;;;;;;;14.32;5.45;;;;;;;6.45;79.11;101543.66;5033392;28;20395;-47
2023/01/28 09:03:04;;;;;;;8.93;5.18;;;;;;;6.42;79.25;101543.16;5032535;28;20029;-46
2023/01/28 09:05:31;;;;;;;12.75;5.75;;;;;;;6.64;78.79;101545.19;5031202;28;20200;-49
2023/01/28 09:08:05;;;;;;;13.55;6.13;;;;;;;6.81;77.86;101543.41;5032699;28;20030;-49
2023/01/28 09:10:31;;;;;;;11.52;5.88;;;;;;;6.29;79.80;101554.25;5032873;28;20032;-46
2023/01/28 09:12:58;;;;;;;11.65;6.60;;;;;;;6.45;80.49;101550.81;5032760;28;20025;-46
2023/01/28 09:15:24;;;;;;;15.25;6.97;;;;;;;6.32;81.11;101540.63;5032641;28;20116;-46
2023/01/28 09:17:57;;;;;;;15.32;6.53;;;;;;;6.10;83.07;101539.38;5032388;28;20033;-46
2023/01/28 09:20:24;;;;;;;16.52;7.20;;;;;;;5.98;84.19;101540.66;5032460;28;20101;-46
2023/01/28 09:22:50;;;;;;;19.40;7.85;;;;;;;5.86;85.14;101549.84;5032480;28;20036;-46
2023/01/28 09:25:17;;;;;;;16.08;7.63;;;;;;;5.76;86.00;101547.31;5032316;28;20033;-46
2023/01/28 09:27:43;;;;;;;23.08;8.10;;;;;;;5.92;85.56;101544.78;5032278;28;20395;-46
2023/01/28 09:30:09;;;;;;;22.45;8.05;;;;;;;5.82;86.00;101547.50;5030646;28;20030;-47
2023/01/28 09:32:36;;;;;;;14.98;7.00;;;;;;;5.62;86.62;101546.06;5032167;28;20033;-49
2023/01/28 09:35:02;;;;;;;16.20;8.45;;;;;;;5.58;87.67;101544.72;5031906;28;20045;-46
2023/01/28 09:37:29;;;;;;;15.65;7.43;;;;;;;5.49;88.56;101549.13;5032320;28;20044;-46
2023/01/28 09:39:55;;;;;;;12.27;8.43;;;;;;;5.60;87.82;101549.84;5032075;28;20041;-46
2023/01/28 09:42:27;;;;;;;21.33;8.00;;;;;;;5.70;87.29;101551.41;5032526;28;20105;-49
2023/01/28 09:45:15;;;;;;;12.98;7.25;;;;;;;5.46;88.31;101544.13;5031924;28;20037;-47
2023/01/28 09:47:51;;;;;;;14.13;8.35;;;;;;;5.32;89.38;101543.84;5031964;28;20064;-46
2023/01/28 09:50:23;;;;;;;17.92;8.35;;;;;;;5.18;89.67;101537.28;5032268;28;20472;-47
2023/01/28 09:52:52;;;;;;;17.50;8.85;;;;;;;5.11;90.15;101542.38;5031924;28;20029;-48
2023/01/28 09:55:49;;;;;;;17.65;9.38;;;;;;;5.14;89.47;101536.75;5030682;28;20192;-46
2023/01/28 09:58:16;;;;;;;;;;;;;;;5.30;89.16;101533.38;5030890;28;20072;-46
2023/01/28 10:00:51;;;;;;;16.35;7.88;;;;;;;5.36;88.73;101542.56;5032243;28;19949;-47
2023/01/28 10:03:45;;;;;;;14.07;7.80;;;;;;;5.44;87.31;101543.47;5031960;28;20034;-47
2023/01/28 10:06:20;;;;;;;18.83;8.13;;;;;;;5.63;86.22;101544.25;5031677;28;20369;-47
2023/01/28 10:09:20;;;;;;;17.63;8.10;;;;;;;5.48;85.93;101544.78;5032277;28;20487;-46
2023/01/28 10:12:07;;;;;;;14.88;7.93;;;;;;;5.53;85.23;101553.13;5032023;28;20033;-46
2023/01/28 10:14:49;;;;;;;18.17;8.15;;;;;;;5.47;85.01;101553.75;5031851;28;20098;-46
2023/01/28 10:17:17;;;;;;;12.00;7.60;;;;;;;5.48;84.92;101558.06;5031740;28;20380;-45
2023/01/28 10:19:54;;;;;;;14.52;7.90;;;;;;;5.46;84.71;101552.09;5029170;28;20021;-46
2023/01/28 10:22:32;;;;;;;16.80;9.15;;;;;;;5.51;84.23;101556.94;5032025;28;20108;-48
2023/01/28 10:25:05;;;;;;;12.30;8.57;;;;;;;5.47;84.15;101555.59;5031281;28;20044;-46
2023/01/28 10:27:34;;;;;;;13.82;8.02;;;;;;;5.48;83.75;101566.03;5031586;28;20044;-49
2023/01/28 10:30:17;;;;;;;17.63;8.70;;;;;;;5.45;83.44;101554.91;5031340;28;20033;-48
2023/01/28 10:32:50;;;;;;;16.35;9.02;;;;;;;5.44;83.23;101558.53;5031823;28;20033;-48
2023/01/28 10:35:16;;;;;;;16.60;9.73;;;;;;;5.71;81.33;101566.34;5031267;28;20476;-46
2023/01/28 10:37:43;;;;;;;15.73;9.88;;;;;;;5.51;81.17;101565.75;5031400;28;20077;-49
2023/01/28 10:40:17;;;;;;;22.25;11.60;;;;;;;5.44;81.61;101570.00;5031210;28;20446;-46
2023/01/28 10:42:44;;;;;;;16.45;10.48;;;;;;;5.52;81.11;101561.25;5032800;28;20483;-47
2023/01/28 10:45:29;;;;;;;18.73;11.02;;;;;;;5.45;81.29;101565.53;5036310;28;20025;-49
2023/01/28 10:48:03;;;;;;;18.40;11.03;;;;;;;5.57;80.19;101567.78;5038200;28;20032;-45
2023/01/28 10:50:30;;;;;;;18.27;11.02;;;;;;;5.42;80.61;101556.03;5037987;28;20063;-46
2023/01/28 10:53:00;;;;;;;16.90;10.30;;;;;;;5.38;80.95;101561.81;5037629;28;20024;-46
2023/01/28 10:55:29;;;;;;;17.23;11.02;;;;;;;5.45;80.82;101571.69;5037766;28;20056;-48
2023/01/28 10:57:57;;;;;;;13.93;10.20;;;;;;;5.36;80.73;101571.75;5037899;28;20026;-48
2023/01/28 11:00:27;;;;;;;16.67;10.63;;;;;;;5.33;80.92;101572.06;5037817;28;20029;-46
2023/01/28 11:02:55;;;;;;;16.00;9.38;;;;;;;5.29;80.83;101566.25;5037761;28;20371;-46
2023/01/28 11:05:27;;;;;;;17.95;9.93;;;;;;;5.29;80.81;101560.94;5037567;28;20029;-47
2023/01/28 11:08:12;;;;;;;15.68;9.30;;;;;;;5.28;80.80;101575.19;5036076;28;20029;-46
2023/01/28 11:10:39;;;;;;;21.17;9.70;;;;;;;5.10;81.83;101561.09;5033366;28;20025;-46
2023/01/28 11:13:14;;;;;;;16.70;10.32;;;;;;;5.27;80.54;101563.75;5032904;28;20041;-47
2023/01/28 11:16:16;;;;;;;16.17;9.65;;;;;;;5.22;80.86;101571.34;5033214;28;20029;-47
2023/01/28 11:18:56;;;;;;;15.65;9.32;;;;;;;5.22;80.78;101565.19;5009850;28;20033;-48
2023/01/28 11:21:27;;;;;;;16.17;9.60;;;;;;;5.22;80.49;101570.50;5038150;28;20523;-46
2023/01/28 11:24:06;;;;;;;16.52;10.00;;;;;;;5.27;80.08;101573.50;5036823;28;20033;-47
2023/01/28 11:26:37;;;;;;;16.35;11.48;;;;;;;5.26;79.55;101566.53;5026362;28;20042;-48
2023/01/28 11:29:05;;;;;;;19.45;11.25;;;;;;;5.16;80.07;101556.00;5035403;28;20399;-46
2023/01/28 11:31:40;;;;;;;15.45;10.60;;;;;;;5.13;80.18;101555.47;5031563;28;20032;-49
2023/01/28 11:34:07;;;;;;;19.63;11.23;;;;;;;5.02;80.58;101554.72;5033977;28;20030;-46
2023/01/28 11:36:34;;;;;;;22.33;13.55;;;;;;;4.99;81.19;101554.19;5035018;28;20025;-47
2023/01/28 11:39:33;;;;;;;25.75;14.68;;;;;;;5.08;81.05;101560.41;5033852;28;20046;-46
2023/01/28 11:42:19;;;;;;;23.35;14.43;;;;;;;5.12;81.31;101559.13;4993970;28;20068;-47
2023/01/28 11:44:47;;;;;;;22.85;14.40;;;;;;;5.13;81.38;101558.97;5024338;28;20033;-46
2023/01/28 11:47:13;;;;;;;21.95;13.13;;;;;;;5.12;81.50;101562.63;5035955;28;20033;-45
2023/01/28 11:50:10;;;;;;;20.63;12.88;;;;;;;5.10;81.27;101561.91;5028871;28;20116;-46
2023/01/28 11:52:46;;;;;;;21.77;12.93;;;;;;;5.08;81.14;101557.75;5036598;28;20048;-47
2023/01/28 11:55:35;;;;;;;23.40;13.15;;;;;;;5.05;81.26;101558.88;5016906;28;20030;-47
2023/01/28 11:58:35;;;;;;;21.67;13.27;;;;;;;5.10;81.29;101561.09;5025326;28;20160;-45
2023/01/28 12:01:19;;;;;;;22.30;13.65;;;;;;;5.04;81.80;101557.22;5014961;28;20496;-46